createdAt,value
2018-06-05T00:00:28.399Z,12.40
2018-06-05T00:02:56.594Z,13.90
2018-06-05T00:05:24.798Z,11.07
2018-06-05T00:07:53.077Z,12.03
2018-06-05T00:10:21.300Z,10.80
2018-06-05T00:12:49.557Z,13.00
2018-06-05T00:15:17.797Z,12.63
2018-06-05T00:17:46.054Z,13.97
2018-06-05T00:20:14.308Z,14.73
2018-06-05T00:22:42.520Z,12.03
2018-06-05T00:25:10.708Z,11.80
2018-06-05T00:27:38.982Z,14.93
2018-06-05T00:30:07.210Z,12.90
2018-06-05T00:32:35.403Z,11.93
2018-06-05T00:35:03.634Z,13.07
2018-06-05T00:37:31.839Z,11.73
2018-06-05T00:40:00.099Z,12.80
2018-06-05T00:42:28.312Z,10.10
2018-06-05T00:44:56.519Z,12.33
2018-06-05T00:47:24.761Z,12.83
2018-06-05T00:49:52.992Z,14.87
2018-06-05T00:52:21.224Z,15.13
2018-06-05T00:54:49.465Z,16.43
2018-06-05T00:57:17.671Z,14.97
2018-06-05T00:59:45.927Z,11.93
2018-06-05T01:02:14.167Z,12.53
2018-06-05T01:04:42.387Z,15.13
2018-06-05T01:07:10.599Z,18.70
2018-06-05T01:09:39.348Z,16.50
2018-06-05T01:12:07.668Z,16.00
2018-06-05T01:14:35.871Z,15.50
2018-06-05T01:17:04.096Z,15.73
2018-06-05T01:19:32.332Z,14.90
2018-06-05T01:22:00.600Z,15.83
2018-06-05T01:24:28.817Z,12.50
2018-06-05T01:26:57.990Z,14.67
2018-06-05T01:29:26.227Z,15.37
2018-06-05T01:31:54.427Z,14.23
2018-06-05T01:34:22.676Z,14.47
2018-06-05T01:36:50.911Z,16.30
2018-06-05T01:39:19.112Z,17.37
2018-06-05T01:41:47.344Z,19.00
2018-06-05T01:44:16.156Z,17.07
2018-06-05T01:46:44.385Z,18.27
2018-06-05T01:49:12.708Z,15.77
2018-06-05T01:51:40.981Z,17.97
2018-06-05T01:54:09.181Z,18.33
2018-06-05T01:56:37.404Z,15.20
2018-06-05T01:59:05.645Z,16.20
2018-06-05T02:01:33.840Z,17.20
2018-06-05T02:04:02.082Z,16.53
2018-06-05T02:06:30.340Z,18.27
2018-06-05T02:08:58.542Z,17.50
2018-06-05T02:11:26.771Z,17.30
2018-06-05T02:13:54.992Z,15.10
2018-06-05T02:16:23.200Z,18.20
2018-06-05T02:18:51.440Z,15.03
2018-06-05T02:21:20.518Z,18.50
2018-06-05T02:23:48.739Z,15.50
2018-06-05T02:26:16.985Z,18.43
2018-06-05T02:28:44.963Z,18.83
2018-06-05T02:31:13.172Z,14.47
2018-06-05T02:33:41.135Z,17.13
2018-06-05T02:36:09.116Z,15.53
2018-06-05T02:38:37.076Z,15.97
2018-06-05T02:41:05.309Z,16.57
2018-06-05T02:43:33.588Z,18.07
2018-06-05T02:46:02.792Z,13.83
2018-06-05T02:48:30.997Z,14.83
2018-06-05T02:50:59.216Z,15.93
2018-06-05T02:53:27.413Z,13.23
2018-06-05T02:55:55.656Z,14.07
2018-06-05T02:58:23.850Z,15.97
2018-06-05T03:00:52.068Z,15.10
2018-06-05T03:03:20.292Z,16.90
2018-06-05T03:05:48.812Z,17.10
2018-06-05T03:08:17.816Z,15.43
2018-06-05T03:10:46.036Z,15.40
2018-06-05T03:13:14.336Z,18.60
2018-06-05T03:15:42.564Z,17.87
2018-06-05T03:18:10.796Z,14.67
2018-06-05T03:20:39.064Z,17.33
2018-06-05T03:23:07.268Z,19.07
2018-06-05T03:25:35.491Z,17.13
2018-06-05T03:28:03.707Z,14.63
2018-06-05T03:30:31.926Z,15.50
2018-06-05T03:33:00.143Z,18.73
2018-06-05T03:35:28.456Z,19.53
2018-06-05T03:37:56.683Z,15.90
2018-06-05T03:40:24.930Z,18.30
2018-06-05T03:42:53.633Z,17.80
2018-06-05T03:45:21.593Z,17.17
2018-06-05T03:47:49.893Z,17.87
2018-06-05T03:50:18.084Z,15.57
2018-06-05T03:52:46.340Z,17.97
2018-06-05T03:55:14.577Z,19.33
2018-06-05T03:57:42.812Z,20.20
2018-06-05T04:00:11.097Z,17.47
2018-06-05T04:02:39.359Z,14.57
2018-06-05T04:05:07.583Z,15.10
2018-06-05T04:07:35.820Z,18.17
2018-06-05T04:10:04.086Z,16.03
2018-06-05T04:12:32.280Z,15.27
2018-06-05T04:15:00.528Z,16.33
2018-06-05T04:17:28.804Z,17.70
2018-06-05T04:19:57.063Z,19.27
2018-06-05T04:22:25.041Z,19.27
2018-06-05T04:24:53.016Z,16.50
2018-06-05T04:27:21.266Z,18.00
2018-06-05T04:29:49.487Z,15.83
2018-06-05T04:32:17.732Z,16.33
2018-06-05T04:34:46.087Z,19.60
2018-06-05T04:37:14.325Z,14.13
2018-06-05T04:39:42.825Z,13.40
2018-06-05T04:42:11.064Z,14.60
2018-06-05T04:44:39.280Z,15.27
2018-06-05T04:47:07.640Z,12.53
2018-06-05T04:49:35.940Z,16.13
2018-06-05T04:52:04.185Z,14.83
2018-06-05T04:54:32.418Z,16.33
2018-06-05T04:57:00.737Z,14.90
2018-06-05T04:59:29.012Z,12.83
2018-06-05T05:01:57.220Z,12.90
2018-06-05T05:04:25.452Z,12.63
2018-06-05T05:06:53.674Z,16.03
2018-06-05T05:09:21.912Z,10.90
2018-06-05T05:11:50.096Z,11.17
2018-06-05T05:14:18.331Z,11.53
2018-06-05T05:16:46.544Z,16.13
2018-06-05T05:19:14.771Z,12.20
2018-06-05T05:21:42.988Z,13.13
2018-06-05T05:24:11.200Z,13.40
2018-06-05T05:26:39.440Z,13.27
2018-06-05T05:29:07.680Z,12.83
2018-06-05T05:31:35.905Z,15.37
2018-06-05T05:34:04.133Z,11.87
2018-06-05T05:36:33.016Z,14.70
2018-06-05T05:39:01.341Z,15.70
2018-06-05T05:41:29.596Z,12.33
2018-06-05T05:43:57.811Z,13.33
2018-06-05T05:46:26.072Z,14.87
2018-06-05T05:48:54.265Z,12.73
2018-06-05T05:51:22.507Z,10.20
2018-06-05T05:53:50.700Z,10.63
2018-06-05T05:56:19.029Z,12.80
2018-06-05T05:58:47.253Z,12.80
2018-06-05T06:01:15.474Z,12.90
2018-06-05T06:03:43.725Z,11.80
2018-06-05T06:06:11.908Z,13.37
2018-06-05T06:08:40.156Z,12.17
2018-06-05T06:11:08.391Z,12.63
2018-06-05T06:13:36.596Z,13.63
2018-06-05T06:16:04.924Z,13.47
2018-06-05T06:18:33.136Z,14.13
2018-06-05T06:21:01.380Z,13.50
2018-06-05T06:23:29.583Z,13.70
2018-06-05T06:25:57.801Z,12.30
2018-06-05T06:28:26.065Z,13.07
2018-06-05T06:30:54.252Z,15.37
2018-06-05T06:33:22.483Z,12.77
2018-06-05T06:35:50.724Z,11.00
2018-06-05T06:38:19.825Z,14.37
2018-06-05T06:40:48.856Z,14.87
2018-06-05T06:43:17.091Z,13.23
2018-06-05T06:45:45.323Z,17.03
2018-06-05T06:48:13.636Z,12.00
2018-06-05T06:50:41.836Z,11.03
2018-06-05T06:53:10.031Z,11.97
2018-06-05T06:55:38.281Z,13.57
2018-06-05T06:58:06.496Z,16.37
2018-06-05T07:00:34.973Z,14.17
2018-06-05T07:03:03.207Z,12.10
2018-06-05T07:05:31.424Z,11.07
2018-06-05T07:07:59.635Z,13.10
2018-06-05T07:10:27.903Z,12.03
2018-06-05T07:12:56.112Z,14.00
2018-06-05T07:15:24.332Z,10.97
2018-06-05T07:17:52.580Z,14.03
2018-06-05T07:20:20.808Z,14.53
2018-06-05T07:22:49.044Z,12.23
2018-06-05T07:25:17.340Z,13.80
2018-06-05T07:27:45.566Z,12.00
2018-06-05T07:30:13.818Z,13.30
2018-06-05T07:32:42.117Z,11.67
2018-06-05T07:35:10.317Z,13.43
2018-06-05T07:37:38.512Z,10.83
2018-06-05T07:40:06.748Z,11.70
2018-06-05T07:42:34.965Z,12.33
2018-06-05T07:45:03.183Z,11.30
2018-06-05T07:47:31.438Z,8.80
2018-06-05T07:49:59.679Z,12.30
2018-06-05T07:52:27.860Z,10.23
2018-06-05T07:54:56.079Z,9.27
2018-06-05T07:57:24.304Z,10.63
2018-06-05T07:59:52.569Z,11.17
2018-06-05T08:02:20.755Z,15.40
2018-06-05T08:04:49.009Z,10.17
2018-06-05T08:07:17.204Z,9.13
2018-06-05T08:09:45.395Z,11.00
2018-06-05T08:12:13.862Z,9.00
2018-06-05T08:14:42.093Z,11.43
2018-06-05T08:17:10.304Z,10.50
2018-06-05T08:19:38.521Z,9.33
2018-06-05T08:22:06.844Z,9.63
2018-06-05T08:24:35.186Z,10.13
2018-06-05T08:27:03.371Z,9.70
2018-06-05T08:29:31.609Z,8.93
2018-06-05T08:31:59.864Z,8.27
2018-06-05T08:34:28.064Z,7.53
2018-06-05T08:36:56.277Z,10.27
2018-06-05T08:39:24.592Z,8.87
2018-06-05T08:41:52.898Z,10.87
2018-06-05T08:44:21.118Z,8.43
2018-06-05T08:46:49.333Z,9.50
2018-06-05T08:49:18.172Z,8.60
2018-06-05T08:51:46.400Z,9.67
2018-06-05T08:54:14.611Z,9.13
2018-06-05T08:56:42.849Z,8.00
2018-06-05T08:59:10.788Z,8.87
2018-06-05T09:01:39.024Z,8.47
2018-06-05T09:04:07.380Z,9.13
2018-06-05T09:06:35.617Z,7.83
2018-06-05T09:09:05.894Z,10.37
2018-06-05T09:11:34.117Z,8.83
2018-06-05T09:14:02.356Z,8.27
2018-06-05T09:16:30.592Z,9.60
2018-06-05T09:18:58.921Z,8.80
2018-06-05T09:21:27.147Z,8.10
2018-06-05T09:23:55.361Z,8.70
2018-06-05T09:26:24.540Z,8.83
2018-06-05T09:28:52.749Z,8.07
2018-06-05T09:31:20.961Z,8.07
2018-06-05T09:33:49.192Z,7.33
2018-06-05T09:36:17.458Z,7.37
2018-06-05T09:38:45.662Z,8.53
2018-06-05T09:41:13.876Z,8.07
2018-06-05T09:43:42.089Z,7.33
2018-06-05T09:46:10.348Z,8.03
2018-06-05T09:48:38.556Z,8.57
2018-06-05T09:51:07.229Z,11.03
2018-06-05T09:53:35.192Z,8.20
2018-06-05T09:56:03.457Z,9.27
2018-06-05T09:58:31.694Z,7.60
2018-06-05T10:00:59.873Z,7.90
2018-06-05T10:03:28.118Z,7.47
2018-06-05T10:05:56.321Z,7.50
2018-06-05T10:08:24.513Z,9.57
2018-06-05T10:10:52.735Z,7.07
2018-06-05T10:13:20.960Z,9.90
2018-06-05T10:15:49.172Z,8.80
2018-06-05T10:18:17.403Z,8.67
2018-06-05T10:20:45.631Z,7.80
2018-06-05T10:23:13.812Z,7.87
2018-06-05T10:25:42.057Z,8.23
2018-06-05T10:28:10.277Z,7.10
2018-06-05T10:30:38.497Z,8.33
2018-06-05T10:33:06.700Z,7.73
2018-06-05T10:35:34.671Z,7.80
2018-06-05T10:38:02.888Z,7.30
2018-06-05T10:40:31.136Z,8.43
2018-06-05T10:42:59.367Z,7.37
2018-06-05T10:45:27.578Z,8.40
2018-06-05T10:47:55.780Z,8.90
2018-06-05T10:50:23.991Z,7.90
2018-06-05T10:52:52.245Z,8.63
2018-06-05T10:55:20.461Z,8.60
2018-06-05T10:57:48.711Z,9.23
2018-06-05T11:00:16.922Z,8.53
2018-06-05T11:02:45.149Z,10.90
2018-06-05T11:05:13.402Z,8.73
2018-06-05T11:07:41.606Z,8.63
2018-06-05T11:10:09.904Z,8.30
2018-06-05T11:12:38.110Z,8.03
2018-06-05T11:15:06.321Z,9.97
2018-06-05T11:17:34.553Z,8.53
2018-06-05T11:20:02.801Z,7.57
2018-06-05T11:22:31.131Z,6.73
2018-06-05T11:24:59.357Z,8.10
2018-06-05T11:27:27.680Z,10.60
2018-06-05T11:29:55.908Z,8.97
2018-06-05T11:32:24.226Z,8.50
2018-06-05T11:34:52.416Z,8.60
2018-06-05T11:37:20.637Z,7.80
2018-06-05T11:39:48.916Z,8.40
2018-06-05T11:42:17.124Z,8.20
2018-06-05T11:44:45.348Z,9.03
2018-06-05T11:47:13.616Z,6.77
2018-06-05T11:49:41.846Z,7.60
2018-06-05T11:52:10.085Z,6.93
2018-06-05T11:54:38.327Z,7.07
2018-06-05T11:57:06.521Z,6.90
2018-06-05T11:59:34.732Z,6.80
2018-06-05T12:02:02.953Z,7.60
2018-06-05T12:04:31.181Z,7.60
2018-06-05T12:06:59.382Z,8.17
2018-06-05T12:09:27.679Z,7.73
2018-06-05T12:11:55.940Z,8.40
2018-06-05T12:14:24.156Z,7.20
2018-06-05T12:16:52.408Z,7.83
2018-06-05T12:19:21.151Z,6.87
2018-06-05T12:21:49.694Z,7.50
2018-06-05T12:24:17.895Z,6.77
2018-06-05T12:26:46.256Z,7.63
2018-06-05T12:29:14.207Z,7.37
2018-06-05T12:31:42.540Z,7.37
2018-06-05T12:34:10.751Z,7.20
2018-06-05T12:36:38.957Z,7.33
2018-06-05T12:39:08.253Z,7.47
2018-06-05T12:41:36.524Z,7.30
2018-06-05T12:44:04.859Z,6.87
2018-06-05T12:46:33.076Z,6.90
2018-06-05T12:49:01.072Z,6.80
2018-06-05T12:51:29.294Z,7.23
2018-06-05T12:53:57.514Z,7.10
2018-06-05T12:56:25.742Z,6.60
2018-06-05T12:58:53.956Z,9.83
2018-06-05T13:01:22.209Z,7.07
2018-06-05T13:03:50.416Z,6.83
2018-06-05T13:06:18.613Z,7.10
2018-06-05T13:08:46.860Z,6.43
2018-06-05T13:11:15.034Z,8.50
2018-06-05T13:13:43.278Z,6.83
2018-06-05T13:16:11.504Z,7.40
2018-06-05T13:18:39.821Z,7.17
2018-06-05T13:21:08.032Z,6.50
2018-06-05T13:23:36.231Z,6.43
2018-06-05T13:26:04.493Z,7.40
2018-06-05T13:28:32.681Z,6.97
2018-06-05T13:31:00.900Z,9.47
2018-06-05T13:33:29.108Z,7.67
2018-06-05T13:35:57.340Z,7.60
2018-06-05T13:38:25.561Z,6.73
2018-06-05T13:40:53.789Z,7.60
2018-06-05T13:43:22.008Z,6.47
2018-06-05T13:45:50.443Z,7.73
2018-06-05T13:48:18.676Z,6.50
2018-06-05T13:50:46.904Z,6.43
2018-06-05T13:53:15.115Z,7.47
2018-06-05T13:55:43.092Z,8.35
2018-06-05T13:58:11.351Z,6.77
2018-06-05T14:00:39.620Z,6.80
2018-06-05T14:03:07.861Z,7.27
2018-06-05T14:05:36.220Z,6.17
2018-06-05T14:08:04.692Z,6.97
2018-06-05T14:10:32.928Z,7.07
2018-06-05T14:13:01.191Z,7.87
2018-06-05T14:15:29.393Z,6.37
2018-06-05T14:17:57.631Z,6.40
2018-06-05T14:20:25.836Z,9.23
2018-06-05T14:22:54.076Z,6.77
2018-06-05T14:25:22.299Z,7.27
2018-06-05T14:27:50.529Z,6.77
2018-06-05T14:30:18.741Z,9.77
2018-06-05T14:32:46.964Z,13.83
2018-06-05T14:35:15.216Z,5.58
2018-06-05T14:37:43.441Z,6.87
2018-06-05T14:40:11.667Z,7.70
2018-06-05T14:42:39.872Z,7.83
2018-06-05T14:45:08.168Z,7.73
2018-06-05T14:47:36.298Z,7.37
2018-06-05T14:50:04.568Z,7.13
2018-06-05T14:52:32.872Z,6.87
2018-06-05T14:55:01.106Z,6.00
2018-06-05T14:57:29.327Z,6.33
2018-06-05T14:59:58.513Z,5.85
2018-06-05T15:02:26.468Z,5.72
2018-06-05T15:04:54.708Z,5.78
2018-06-05T15:07:22.982Z,6.08
2018-06-05T15:09:51.189Z,6.75
2018-06-05T15:12:19.399Z,5.70
2018-06-05T15:14:47.703Z,6.37
2018-06-05T15:17:15.933Z,5.67
2018-06-05T15:19:44.164Z,5.97
2018-06-05T15:22:12.380Z,6.25
2018-06-05T15:24:40.624Z,6.22
2018-06-05T15:27:08.892Z,5.70
2018-06-05T15:29:37.201Z,5.83
2018-06-05T15:32:05.752Z,6.25
2018-06-05T15:34:33.963Z,6.25
2018-06-05T15:37:02.177Z,5.77
2018-06-05T15:39:30.467Z,7.53
2018-06-05T15:41:58.724Z,10.20
2018-06-05T15:44:26.952Z,9.40
2018-06-05T15:46:55.141Z,7.30
2018-06-05T15:49:23.368Z,6.33
2018-06-05T15:51:51.600Z,6.10
2018-06-05T15:54:20.521Z,6.23
2018-06-05T15:56:48.754Z,7.63
2018-06-05T15:59:16.960Z,6.50
2018-06-05T16:01:45.212Z,5.90
2018-06-05T16:04:13.449Z,6.53
2018-06-05T16:06:41.656Z,8.70
2018-06-05T16:09:09.919Z,6.67
2018-06-05T16:11:38.116Z,6.97
2018-06-05T16:14:06.354Z,6.83
2018-06-05T16:16:34.547Z,8.80
2018-06-05T16:19:02.853Z,7.53
2018-06-05T16:21:30.808Z,6.60
2018-06-05T16:23:58.779Z,6.87
2018-06-05T16:26:27.017Z,6.00
2018-06-05T16:28:55.236Z,7.67
2018-06-05T16:31:23.583Z,6.37
2018-06-05T16:33:51.790Z,8.33
2018-06-05T16:36:20.079Z,6.80
2018-06-05T16:38:48.316Z,6.60
2018-06-05T16:41:16.734Z,7.50
2018-06-05T16:43:44.996Z,6.63
2018-06-05T16:46:13.220Z,7.17
2018-06-05T16:48:41.428Z,6.37
2018-06-05T16:51:09.657Z,6.20
2018-06-05T16:53:37.648Z,7.67
2018-06-05T16:56:05.879Z,6.70
2018-06-05T16:58:34.135Z,7.47
2018-06-05T17:01:02.374Z,7.50
2018-06-05T17:03:30.591Z,6.70
2018-06-05T17:05:58.824Z,6.60
2018-06-05T17:08:27.059Z,7.97
2018-06-05T17:10:55.285Z,8.93
2018-06-05T17:13:23.600Z,10.50
2018-06-05T17:15:51.832Z,15.03
2018-06-05T17:18:20.046Z,8.93
2018-06-05T17:20:48.270Z,7.10
2018-06-05T17:23:16.479Z,8.73
2018-06-05T17:25:44.753Z,6.70
2018-06-05T17:28:13.008Z,7.27
2018-06-05T17:30:41.237Z,6.80
2018-06-05T17:33:09.429Z,6.67
2018-06-05T17:35:37.684Z,6.80
2018-06-05T17:38:05.975Z,5.87
2018-06-05T17:40:34.465Z,7.67
2018-06-05T17:43:02.672Z,7.57
2018-06-05T17:45:30.978Z,6.77
2018-06-05T17:47:59.178Z,6.40
2018-06-05T17:50:27.388Z,7.47
2018-06-05T17:52:55.593Z,6.40
2018-06-05T17:55:23.890Z,6.33
2018-06-05T17:57:52.112Z,7.10
2018-06-05T18:00:20.324Z,6.77
2018-06-05T18:02:48.567Z,6.57
2018-06-05T18:05:24.732Z,6.67
2018-06-05T18:07:53.029Z,7.33
2018-06-05T18:10:21.240Z,9.07
2018-06-05T18:12:49.485Z,7.30
2018-06-05T18:15:17.704Z,8.33
2018-06-05T18:17:45.953Z,7.40
2018-06-05T18:20:14.168Z,9.13
2018-06-05T18:22:42.413Z,8.03
2018-06-05T18:25:10.640Z,9.37
2018-06-05T18:27:38.928Z,7.60
2018-06-05T18:30:07.145Z,8.73
2018-06-05T18:32:35.377Z,6.80
2018-06-05T18:35:03.608Z,7.73
2018-06-05T18:37:31.845Z,7.27
2018-06-05T18:40:00.189Z,8.07
2018-06-05T18:42:28.388Z,8.97
2018-06-05T18:44:56.589Z,8.70
2018-06-05T18:47:24.820Z,8.17
2018-06-05T18:49:53.028Z,7.47
2018-06-05T18:52:21.276Z,8.47
2018-06-05T18:54:49.471Z,8.17
2018-06-05T18:57:17.672Z,8.87
2018-06-05T18:59:45.912Z,8.43
2018-06-05T19:02:14.244Z,11.03
2018-06-05T19:04:42.612Z,7.73
2018-06-05T19:07:10.824Z,8.80
2018-06-05T19:09:39.036Z,7.77
2018-06-05T19:12:07.275Z,8.40
2018-06-05T19:14:35.535Z,7.93
2018-06-05T19:17:03.724Z,9.47
2018-06-05T19:19:32.131Z,7.90
2018-06-05T19:22:00.367Z,8.40
2018-06-05T19:24:28.632Z,8.77
2018-06-05T19:26:56.872Z,8.73
2018-06-05T19:29:25.112Z,9.13
2018-06-05T19:31:53.382Z,9.07
2018-06-05T19:34:21.581Z,13.23
2018-06-05T19:36:49.878Z,10.13
2018-06-05T19:39:18.108Z,12.00
2018-06-05T19:41:46.081Z,11.70
2018-06-05T19:44:14.328Z,10.37
2018-06-05T19:46:42.581Z,9.37
2018-06-05T19:49:10.806Z,9.77
2018-06-05T19:51:39.009Z,8.83
2018-06-05T19:54:07.273Z,11.20
2018-06-05T19:56:35.485Z,14.60
2018-06-05T19:59:03.767Z,12.13
2018-06-05T20:01:31.992Z,12.23
2018-06-05T20:04:00.363Z,10.17
2018-06-05T20:06:28.592Z,12.57
2018-06-05T20:08:56.849Z,10.77
2018-06-05T20:11:25.088Z,9.40
2018-06-05T20:13:53.325Z,10.70
2018-06-05T20:16:21.574Z,11.03
2018-06-05T20:18:49.835Z,10.67
2018-06-05T20:21:18.059Z,9.33
2018-06-05T20:23:46.579Z,11.27
2018-06-05T20:26:14.825Z,10.67
2018-06-05T20:28:43.130Z,12.50
2018-06-05T20:31:11.324Z,10.63
2018-06-05T20:33:39.542Z,10.20
2018-06-05T20:36:07.752Z,12.13
2018-06-05T20:38:35.984Z,11.33
2018-06-05T20:41:04.238Z,11.03
2018-06-05T20:43:32.456Z,13.00
2018-06-05T20:46:00.666Z,12.43
2018-06-05T20:48:28.921Z,21.20
2018-06-05T20:50:58.362Z,11.50
2018-06-05T20:53:26.589Z,11.63
2018-06-05T20:55:54.852Z,10.60
2018-06-05T20:58:23.220Z,12.60
2018-06-05T21:00:51.473Z,10.83
2018-06-05T21:03:19.710Z,13.57
2018-06-05T21:05:47.903Z,13.17
2018-06-05T21:08:16.166Z,13.80
2018-06-05T21:10:44.469Z,12.73
2018-06-05T21:13:12.678Z,13.57
2018-06-05T21:15:40.883Z,12.93
2018-06-05T21:18:09.111Z,13.17
2018-06-05T21:20:37.323Z,12.13
2018-06-05T21:23:05.843Z,13.23
2018-06-05T21:25:34.048Z,13.00
2018-06-05T21:28:02.232Z,13.07
2018-06-05T21:30:30.528Z,13.57
2018-06-05T21:32:58.802Z,12.93
2018-06-05T21:35:27.044Z,12.43
2018-06-05T21:37:55.255Z,14.53
2018-06-05T21:40:23.473Z,14.53
2018-06-05T21:42:51.709Z,14.27
2018-06-05T21:45:19.959Z,14.53
2018-06-05T21:47:48.225Z,14.37
2018-06-05T21:50:16.472Z,16.20
2018-06-05T21:52:44.672Z,13.87
2018-06-05T21:55:12.911Z,14.00
2018-06-05T21:57:41.259Z,14.03
2018-06-05T22:00:09.526Z,18.53
2018-06-05T22:02:37.861Z,15.80
2018-06-05T22:05:06.076Z,15.93
2018-06-05T22:07:34.337Z,17.40
2018-06-05T22:10:02.556Z,16.87
2018-06-05T22:12:30.778Z,17.00
2018-06-05T22:14:58.989Z,16.93
2018-06-05T22:17:27.236Z,16.17
2018-06-05T22:19:55.439Z,14.90
2018-06-05T22:22:23.685Z,18.57
2018-06-05T22:24:51.917Z,14.90
2018-06-05T22:27:20.137Z,17.10
2018-06-05T22:29:48.336Z,15.47
2018-06-05T22:32:16.605Z,18.77
2018-06-05T22:34:44.845Z,16.23
2018-06-05T22:37:13.048Z,15.77
2018-06-05T22:39:41.288Z,15.73
2018-06-05T22:42:09.496Z,17.13
2018-06-05T22:44:37.738Z,17.20
2018-06-05T22:47:05.952Z,17.93
2018-06-05T22:49:34.173Z,18.17
2018-06-05T22:52:02.508Z,18.07
2018-06-05T22:54:30.696Z,18.90
2018-06-05T22:56:58.933Z,17.40
2018-06-05T22:59:27.164Z,20.30
2018-06-05T23:01:55.361Z,16.93
2018-06-05T23:04:23.576Z,20.30
2018-06-05T23:06:51.783Z,20.23
2018-06-05T23:09:20.029Z,19.33
2018-06-05T23:11:48.256Z,19.17
2018-06-05T23:14:16.468Z,19.07
2018-06-05T23:16:44.701Z,21.77
2018-06-05T23:19:12.904Z,22.53
2018-06-05T23:21:41.152Z,19.80
2018-06-05T23:24:09.376Z,19.80
2018-06-05T23:26:37.567Z,20.33
2018-06-05T23:29:05.805Z,20.57
2018-06-05T23:31:34.023Z,24.67
2018-06-05T23:34:02.249Z,20.67
2018-06-05T23:36:30.449Z,21.27
2018-06-05T23:38:58.683Z,22.33
2018-06-05T23:41:26.954Z,22.73
2018-06-05T23:43:55.180Z,19.47
2018-06-05T23:46:23.380Z,21.60
2018-06-05T23:48:51.715Z,21.33
2018-06-05T23:51:19.905Z,22.80
2018-06-05T23:53:48.152Z,23.47
2018-06-05T23:56:16.382Z,23.83
2018-06-05T23:58:44.588Z,20.97
